sensor_id;sensor_type;location;lat;lon;timestamp;temperature;humidity
38784;DHT22;24531;45.502;12.238;2023-11-21T00:00:13;12.50;99.90
38784;DHT22;24531;45.502;12.238;2023-11-21T00:02:39;12.60;99.90
38784;DHT22;24531;45.502;12.238;2023-11-21T00:05:08;12.60;99.90
38784;DHT22;24531;45.502;12.238;2023-11-21T00:07:35;12.60;99.90
38784;DHT22;24531;45.502;12.238;2023-11-21T00:10:01;12.60;99.90
38784;DHT22;24531;45.502;12.238;2023-11-21T00:12:28;12.60;99.90
38784;DHT22;24531;45.502;12.238;2023-11-21T00:14:55;12.60;99.90
38784;DHT22;24531;45.502;12.238;2023-11-21T00:17:20;12.60;99.90
38784;DHT22;24531;45.502;12.238;2023-11-21T00:19:46;12.60;99.90
38784;DHT22;24531;45.502;12.238;2023-11-21T00:22:11;12.60;99.90
38784;DHT22;24531;45.502;12.238;2023-11-21T00:24:37;12.60;99.90
38784;DHT22;24531;45.502;12.238;2023-11-21T00:27:03;12.60;99.90
38784;DHT22;24531;45.502;12.238;2023-11-21T00:29:29;12.60;99.90
38784;DHT22;24531;45.502;12.238;2023-11-21T00:31:54;12.60;99.90
38784;DHT22;24531;45.502;12.238;2023-11-21T00:34:20;12.70;99.90
38784;DHT22;24531;45.502;12.238;2023-11-21T00:36:45;12.60;99.90
38784;DHT22;24531;45.502;12.238;2023-11-21T00:39:11;12.60;99.90
38784;DHT22;24531;45.502;12.238;2023-11-21T00:41:37;12.60;99.90
38784;DHT22;24531;45.502;12.238;2023-11-21T00:44:04;12.50;99.90
38784;DHT22;24531;45.502;12.238;2023-11-21T00:46:31;12.50;99.90
38784;DHT22;24531;45.502;12.238;2023-11-21T00:48:57;12.60;99.90
38784;DHT22;24531;45.502;12.238;2023-11-21T00:51:23;12.60;99.90
38784;DHT22;24531;45.502;12.238;2023-11-21T00:53:49;12.60;99.90
38784;DHT22;24531;45.502;12.238;2023-11-21T00:56:15;12.60;99.90
38784;DHT22;24531;45.502;12.238;2023-11-21T00:58:41;12.60;99.90
38784;DHT22;24531;45.502;12.238;2023-11-21T01:01:14;12.60;99.90
38784;DHT22;24531;45.502;12.238;2023-11-21T01:03:40;12.60;99.90
38784;DHT22;24531;45.502;12.238;2023-11-21T01:06:06;12.60;99.90
38784;DHT22;24531;45.502;12.238;2023-11-21T01:08:32;12.50;99.90
38784;DHT22;24531;45.502;12.238;2023-11-21T01:10:58;12.50;99.90
38784;DHT22;24531;45.502;12.238;2023-11-21T01:13:23;12.60;99.90
38784;DHT22;24531;45.502;12.238;2023-11-21T01:15:49;12.60;99.90
38784;DHT22;24531;45.502;12.238;2023-11-21T01:18:15;12.50;99.90
38784;DHT22;24531;45.502;12.238;2023-11-21T01:20:40;12.50;99.90
38784;DHT22;24531;45.502;12.238;2023-11-21T01:23:06;12.50;99.90
38784;DHT22;24531;45.502;12.238;2023-11-21T01:25:31;12.50;99.90
38784;DHT22;24531;45.502;12.238;2023-11-21T01:27:57;12.50;99.90
38784;DHT22;24531;45.502;12.238;2023-11-21T01:30:22;12.50;99.90
38784;DHT22;24531;45.502;12.238;2023-11-21T01:32:48;12.50;99.90
38784;DHT22;24531;45.502;12.238;2023-11-21T01:35:14;12.40;99.90
38784;DHT22;24531;45.502;12.238;2023-11-21T01:37:39;12.30;99.90
38784;DHT22;24531;45.502;12.238;2023-11-21T01:40:05;12.30;99.90
38784;DHT22;24531;45.502;12.238;2023-11-21T01:42:39;12.20;99.90
38784;DHT22;24531;45.502;12.238;2023-11-21T01:45:05;12.20;99.90
38784;DHT22;24531;45.502;12.238;2023-11-21T01:47:32;12.20;99.90
38784;DHT22;24531;45.502;12.238;2023-11-21T01:49:59;12.20;99.90
38784;DHT22;24531;45.502;12.238;2023-11-21T01:52:24;12.30;99.90
38784;DHT22;24531;45.502;12.238;2023-11-21T01:54:51;12.30;99.90
38784;DHT22;24531;45.502;12.238;2023-11-21T01:57:19;12.40;99.90
38784;DHT22;24531;45.502;12.238;2023-11-21T01:59:47;12.40;99.90
38784;DHT22;24531;45.502;12.238;2023-11-21T02:02:14;12.40;99.90
38784;DHT22;24531;45.502;12.238;2023-11-21T02:04:41;12.40;99.90
38784;DHT22;24531;45.502;12.238;2023-11-21T02:07:07;12.40;99.90
38784;DHT22;24531;45.502;12.238;2023-11-21T02:09:32;12.40;99.90
38784;DHT22;24531;45.502;12.238;2023-11-21T02:12:03;12.40;99.90
38784;DHT22;24531;45.502;12.238;2023-11-21T02:14:30;12.40;99.90
38784;DHT22;24531;45.502;12.238;2023-11-21T02:16:56;12.40;99.90
38784;DHT22;24531;45.502;12.238;2023-11-21T02:19:26;12.40;99.90
38784;DHT22;24531;45.502;12.238;2023-11-21T02:21:52;12.40;99.90
38784;DHT22;24531;45.502;12.238;2023-11-21T02:24:20;12.40;99.90
38784;DHT22;24531;45.502;12.238;2023-11-21T02:26:45;12.30;99.90
38784;DHT22;24531;45.502;12.238;2023-11-21T02:29:11;12.30;99.90
38784;DHT22;24531;45.502;12.238;2023-11-21T02:31:39;12.30;99.90
38784;DHT22;24531;45.502;12.238;2023-11-21T02:34:17;12.20;99.90
38784;DHT22;24531;45.502;12.238;2023-11-21T02:36:43;12.30;99.90
38784;DHT22;24531;45.502;12.238;2023-11-21T02:39:10;12.20;99.90
38784;DHT22;24531;45.502;12.238;2023-11-21T02:41:37;12.20;99.90
38784;DHT22;24531;45.502;12.238;2023-11-21T02:44:03;12.20;99.90
38784;DHT22;24531;45.502;12.238;2023-11-21T02:46:31;12.10;99.90
38784;DHT22;24531;45.502;12.238;2023-11-21T02:48:57;12.00;99.90
38784;DHT22;24531;45.502;12.238;2023-11-21T02:51:24;12.10;99.90
38784;DHT22;24531;45.502;12.238;2023-11-21T02:53:49;12.00;99.90
38784;DHT22;24531;45.502;12.238;2023-11-21T02:56:16;12.00;99.90
38784;DHT22;24531;45.502;12.238;2023-11-21T02:58:44;12.00;99.90
38784;DHT22;24531;45.502;12.238;2023-11-21T03:01:10;12.10;99.90
38784;DHT22;24531;45.502;12.238;2023-11-21T03:03:39;12.10;99.90
38784;DHT22;24531;45.502;12.238;2023-11-21T03:06:06;12.10;99.90
38784;DHT22;24531;45.502;12.238;2023-11-21T03:08:32;12.10;99.90
38784;DHT22;24531;45.502;12.238;2023-11-21T03:10:58;12.10;99.90
38784;DHT22;24531;45.502;12.238;2023-11-21T03:13:23;12.10;99.90
38784;DHT22;24531;45.502;12.238;2023-11-21T03:15:49;12.10;99.90
38784;DHT22;24531;45.502;12.238;2023-11-21T03:18:15;12.10;99.90
38784;DHT22;24531;45.502;12.238;2023-11-21T03:20:40;12.10;99.90
38784;DHT22;24531;45.502;12.238;2023-11-21T03:23:06;12.00;99.90
38784;DHT22;24531;45.502;12.238;2023-11-21T03:25:32;12.00;99.90
38784;DHT22;24531;45.502;12.238;2023-11-21T03:27:58;12.00;99.90
38784;DHT22;24531;45.502;12.238;2023-11-21T03:30:23;12.00;99.90
38784;DHT22;24531;45.502;12.238;2023-11-21T03:32:49;12.00;99.90
38784;DHT22;24531;45.502;12.238;2023-11-21T03:35:14;12.00;99.90
38784;DHT22;24531;45.502;12.238;2023-11-21T03:37:40;12.00;99.90
38784;DHT22;24531;45.502;12.238;2023-11-21T03:40:07;12.00;99.90
38784;DHT22;24531;45.502;12.238;2023-11-21T03:42:38;12.00;99.90
38784;DHT22;24531;45.502;12.238;2023-11-21T03:45:04;11.90;99.90
38784;DHT22;24531;45.502;12.238;2023-11-21T03:47:30;11.90;99.90
38784;DHT22;24531;45.502;12.238;2023-11-21T03:49:56;11.80;99.90
38784;DHT22;24531;45.502;12.238;2023-11-21T03:52:21;11.90;99.90
38784;DHT22;24531;45.502;12.238;2023-11-21T03:54:47;11.90;99.90
38784;DHT22;24531;45.502;12.238;2023-11-21T03:57:12;11.90;99.90
38784;DHT22;24531;45.502;12.238;2023-11-21T03:59:42;12.00;99.90
38784;DHT22;24531;45.502;12.238;2023-11-21T04:02:07;11.90;99.90
38784;DHT22;24531;45.502;12.238;2023-11-21T04:04:34;11.90;99.90
38784;DHT22;24531;45.502;12.238;2023-11-21T04:06:59;11.90;99.90
38784;DHT22;24531;45.502;12.238;2023-11-21T04:09:25;11.90;99.90
38784;DHT22;24531;45.502;12.238;2023-11-21T04:11:51;11.90;99.90
38784;DHT22;24531;45.502;12.238;2023-11-21T04:14:17;11.90;99.90
38784;DHT22;24531;45.502;12.238;2023-11-21T04:16:43;11.90;99.90
38784;DHT22;24531;45.502;12.238;2023-11-21T04:19:09;11.90;99.90
38784;DHT22;24531;45.502;12.238;2023-11-21T04:21:40;11.90;99.90
38784;DHT22;24531;45.502;12.238;2023-11-21T04:24:06;11.90;99.90
38784;DHT22;24531;45.502;12.238;2023-11-21T04:26:32;11.80;99.90
38784;DHT22;24531;45.502;12.238;2023-11-21T04:28:57;11.60;99.90
38784;DHT22;24531;45.502;12.238;2023-11-21T04:31:23;11.50;99.90
38784;DHT22;24531;45.502;12.238;2023-11-21T04:33:49;11.40;99.90
38784;DHT22;24531;45.502;12.238;2023-11-21T04:36:14;11.20;99.90
38784;DHT22;24531;45.502;12.238;2023-11-21T04:38:40;11.00;99.90
38784;DHT22;24531;45.502;12.238;2023-11-21T04:41:06;10.90;99.90
38784;DHT22;24531;45.502;12.238;2023-11-21T04:43:32;10.80;99.90
38784;DHT22;24531;45.502;12.238;2023-11-21T04:45:57;10.90;99.90
38784;DHT22;24531;45.502;12.238;2023-11-21T04:48:23;10.80;99.90
38784;DHT22;24531;45.502;12.238;2023-11-21T04:50:48;10.70;99.90
38784;DHT22;24531;45.502;12.238;2023-11-21T04:53:14;10.70;99.90
38784;DHT22;24531;45.502;12.238;2023-11-21T04:55:40;10.70;99.90
38784;DHT22;24531;45.502;12.238;2023-11-21T04:58:07;10.70;99.90
38784;DHT22;24531;45.502;12.238;2023-11-21T05:00:33;10.70;99.90
38784;DHT22;24531;45.502;12.238;2023-11-21T05:02:59;10.70;99.90
38784;DHT22;24531;45.502;12.238;2023-11-21T05:05:26;10.70;99.90
38784;DHT22;24531;45.502;12.238;2023-11-21T05:07:52;10.80;99.90
38784;DHT22;24531;45.502;12.238;2023-11-21T05:10:19;10.70;99.90
38784;DHT22;24531;45.502;12.238;2023-11-21T05:12:45;10.60;99.90
38784;DHT22;24531;45.502;12.238;2023-11-21T05:15:14;10.60;99.90
38784;DHT22;24531;45.502;12.238;2023-11-21T05:17:40;10.50;99.90
38784;DHT22;24531;45.502;12.238;2023-11-21T05:20:16;10.50;99.90
38784;DHT22;24531;45.502;12.238;2023-11-21T05:22:47;10.40;99.90
38784;DHT22;24531;45.502;12.238;2023-11-21T05:25:14;10.30;99.90
38784;DHT22;24531;45.502;12.238;2023-11-21T05:27:39;10.30;99.90
38784;DHT22;24531;45.502;12.238;2023-11-21T05:30:05;10.20;99.90
38784;DHT22;24531;45.502;12.238;2023-11-21T05:32:34;10.40;99.90
38784;DHT22;24531;45.502;12.238;2023-11-21T05:35:00;10.40;99.90
38784;DHT22;24531;45.502;12.238;2023-11-21T05:37:26;10.40;99.90
38784;DHT22;24531;45.502;12.238;2023-11-21T05:39:53;10.30;99.90
38784;DHT22;24531;45.502;12.238;2023-11-21T05:42:19;10.20;99.90
38784;DHT22;24531;45.502;12.238;2023-11-21T05:44:46;10.20;99.90
38784;DHT22;24531;45.502;12.238;2023-11-21T05:47:12;10.30;99.90
38784;DHT22;24531;45.502;12.238;2023-11-21T05:49:39;10.30;99.90
38784;DHT22;24531;45.502;12.238;2023-11-21T05:52:05;10.20;99.90
38784;DHT22;24531;45.502;12.238;2023-11-21T05:54:31;10.20;99.90
38784;DHT22;24531;45.502;12.238;2023-11-21T05:56:56;10.20;99.90
38784;DHT22;24531;45.502;12.238;2023-11-21T05:59:23;10.30;99.90
38784;DHT22;24531;45.502;12.238;2023-11-21T06:01:48;10.40;99.90
38784;DHT22;24531;45.502;12.238;2023-11-21T06:04:14;10.40;99.90
38784;DHT22;24531;45.502;12.238;2023-11-21T06:06:39;10.40;99.90
38784;DHT22;24531;45.502;12.238;2023-11-21T06:09:05;10.40;99.90
38784;DHT22;24531;45.502;12.238;2023-11-21T06:11:35;10.30;99.90
38784;DHT22;24531;45.502;12.238;2023-11-21T06:14:01;10.30;99.90
38784;DHT22;24531;45.502;12.238;2023-11-21T06:16:26;10.40;99.90
38784;DHT22;24531;45.502;12.238;2023-11-21T06:18:53;10.30;99.90
38784;DHT22;24531;45.502;12.238;2023-11-21T06:21:18;10.20;99.90
38784;DHT22;24531;45.502;12.238;2023-11-21T06:23:44;10.20;99.90
38784;DHT22;24531;45.502;12.238;2023-11-21T06:26:10;10.20;99.90
38784;DHT22;24531;45.502;12.238;2023-11-21T06:28:35;10.30;99.90
38784;DHT22;24531;45.502;12.238;2023-11-21T06:31:02;10.40;99.90
38784;DHT22;24531;45.502;12.238;2023-11-21T06:33:34;10.50;99.90
38784;DHT22;24531;45.502;12.238;2023-11-21T06:36:00;10.60;99.90
38784;DHT22;24531;45.502;12.238;2023-11-21T06:38:28;10.70;99.90
38784;DHT22;24531;45.502;12.238;2023-11-21T06:40:56;10.80;99.90
38784;DHT22;24531;45.502;12.238;2023-11-21T06:43:22;10.90;99.90
38784;DHT22;24531;45.502;12.238;2023-11-21T06:45:47;10.90;99.90
38784;DHT22;24531;45.502;12.238;2023-11-21T06:48:13;11.00;99.90
38784;DHT22;24531;45.502;12.238;2023-11-21T06:50:40;11.00;99.90
38784;DHT22;24531;45.502;12.238;2023-11-21T06:53:05;11.00;99.90
38784;DHT22;24531;45.502;12.238;2023-11-21T06:55:33;11.10;99.90
38784;DHT22;24531;45.502;12.238;2023-11-21T06:57:58;11.00;99.90
38784;DHT22;24531;45.502;12.238;2023-11-21T07:00:25;11.10;99.90
38784;DHT22;24531;45.502;12.238;2023-11-21T07:02:54;11.10;99.90
38784;DHT22;24531;45.502;12.238;2023-11-21T07:05:21;11.10;99.90
38784;DHT22;24531;45.502;12.238;2023-11-21T07:07:47;11.10;99.90
38784;DHT22;24531;45.502;12.238;2023-11-21T07:10:13;11.20;99.90
38784;DHT22;24531;45.502;12.238;2023-11-21T07:12:39;11.20;99.90
38784;DHT22;24531;45.502;12.238;2023-11-21T07:15:06;11.20;99.90
38784;DHT22;24531;45.502;12.238;2023-11-21T07:17:37;11.20;99.90
38784;DHT22;24531;45.502;12.238;2023-11-21T07:20:03;11.30;99.90
38784;DHT22;24531;45.502;12.238;2023-11-21T07:22:29;11.40;99.90
38784;DHT22;24531;45.502;12.238;2023-11-21T07:24:55;11.50;99.90
38784;DHT22;24531;45.502;12.238;2023-11-21T07:27:22;11.50;99.90
38784;DHT22;24531;45.502;12.238;2023-11-21T07:29:47;11.60;99.90
38784;DHT22;24531;45.502;12.238;2023-11-21T07:32:14;11.70;99.90
38784;DHT22;24531;45.502;12.238;2023-11-21T07:34:40;11.80;99.90
38784;DHT22;24531;45.502;12.238;2023-11-21T07:37:07;11.80;99.90
38784;DHT22;24531;45.502;12.238;2023-11-21T07:39:34;11.70;99.90
38784;DHT22;24531;45.502;12.238;2023-11-21T07:42:01;11.60;99.90
38784;DHT22;24531;45.502;12.238;2023-11-21T07:44:28;11.60;99.90
38784;DHT22;24531;45.502;12.238;2023-11-21T07:46:54;11.70;99.90
38784;DHT22;24531;45.502;12.238;2023-11-21T07:49:26;11.80;99.90
38784;DHT22;24531;45.502;12.238;2023-11-21T07:51:52;11.90;99.90
38784;DHT22;24531;45.502;12.238;2023-11-21T07:54:18;12.00;99.90
38784;DHT22;24531;45.502;12.238;2023-11-21T07:56:43;12.10;99.90
38784;DHT22;24531;45.502;12.238;2023-11-21T07:59:09;12.20;99.90
38784;DHT22;24531;45.502;12.238;2023-11-21T08:01:35;12.20;99.90
38784;DHT22;24531;45.502;12.238;2023-11-21T08:04:00;12.20;99.90
38784;DHT22;24531;45.502;12.238;2023-11-21T08:06:29;12.20;99.90
38784;DHT22;24531;45.502;12.238;2023-11-21T08:08:56;12.20;99.90
38784;DHT22;24531;45.502;12.238;2023-11-21T08:11:22;12.20;99.90
38784;DHT22;24531;45.502;12.238;2023-11-21T08:13:47;12.30;99.90
38784;DHT22;24531;45.502;12.238;2023-11-21T08:16:14;12.30;99.90
38784;DHT22;24531;45.502;12.238;2023-11-21T08:18:40;12.30;99.90
38784;DHT22;24531;45.502;12.238;2023-11-21T08:21:06;12.40;99.90
38784;DHT22;24531;45.502;12.238;2023-11-21T08:23:33;12.40;99.90
38784;DHT22;24531;45.502;12.238;2023-11-21T08:25:59;12.50;99.90
38784;DHT22;24531;45.502;12.238;2023-11-21T08:28:25;12.50;99.90
38784;DHT22;24531;45.502;12.238;2023-11-21T08:30:53;12.50;99.90
38784;DHT22;24531;45.502;12.238;2023-11-21T08:33:22;12.60;99.90
38784;DHT22;24531;45.502;12.238;2023-11-21T08:35:48;12.60;99.90
38784;DHT22;24531;45.502;12.238;2023-11-21T08:38:14;12.60;99.90
38784;DHT22;24531;45.502;12.238;2023-11-21T08:40:39;12.60;99.90
38784;DHT22;24531;45.502;12.238;2023-11-21T08:43:05;12.70;99.90
38784;DHT22;24531;45.502;12.238;2023-11-21T08:45:31;12.80;99.90
38784;DHT22;24531;45.502;12.238;2023-11-21T08:47:58;12.90;99.90
38784;DHT22;24531;45.502;12.238;2023-11-21T08:50:23;12.90;99.90
38784;DHT22;24531;45.502;12.238;2023-11-21T08:52:49;12.90;99.90
38784;DHT22;24531;45.502;12.238;2023-11-21T08:55:15;13.00;99.90
38784;DHT22;24531;45.502;12.238;2023-11-21T08:57:43;13.00;99.90
38784;DHT22;24531;45.502;12.238;2023-11-21T09:00:09;13.00;99.90
38784;DHT22;24531;45.502;12.238;2023-11-21T09:02:38;13.00;99.90
38784;DHT22;24531;45.502;12.238;2023-11-21T09:05:08;13.00;99.90
38784;DHT22;24531;45.502;12.238;2023-11-21T09:07:34;13.00;99.90
38784;DHT22;24531;45.502;12.238;2023-11-21T09:10:01;13.10;99.90
38784;DHT22;24531;45.502;12.238;2023-11-21T09:12:26;13.10;99.90
38784;DHT22;24531;45.502;12.238;2023-11-21T09:14:52;13.20;99.90
38784;DHT22;24531;45.502;12.238;2023-11-21T09:17:18;13.20;99.90
38784;DHT22;24531;45.502;12.238;2023-11-21T09:19:44;13.20;99.90
38784;DHT22;24531;45.502;12.238;2023-11-21T09:22:12;13.30;99.90
38784;DHT22;24531;45.502;12.238;2023-11-21T09:24:38;13.30;99.90
38784;DHT22;24531;45.502;12.238;2023-11-21T09:27:04;13.40;99.90
38784;DHT22;24531;45.502;12.238;2023-11-21T09:29:30;13.40;99.90
38784;DHT22;24531;45.502;12.238;2023-11-21T09:31:57;13.50;99.90
38784;DHT22;24531;45.502;12.238;2023-11-21T09:34:25;13.50;99.90
38784;DHT22;24531;45.502;12.238;2023-11-21T09:36:51;13.50;99.90
38784;DHT22;24531;45.502;12.238;2023-11-21T09:39:17;13.50;99.90
38784;DHT22;24531;45.502;12.238;2023-11-21T09:41:50;13.50;99.90
38784;DHT22;24531;45.502;12.238;2023-11-21T09:44:35;13.60;99.90
38784;DHT22;24531;45.502;12.238;2023-11-21T09:47:02;13.60;99.90
38784;DHT22;24531;45.502;12.238;2023-11-21T09:49:33;13.60;99.90
38784;DHT22;24531;45.502;12.238;2023-11-21T09:52:01;13.60;99.90
38784;DHT22;24531;45.502;12.238;2023-11-21T09:54:30;13.50;99.90
38784;DHT22;24531;45.502;12.238;2023-11-21T09:56:57;13.60;99.90
38784;DHT22;24531;45.502;12.238;2023-11-21T09:59:30;13.60;99.90
38784;DHT22;24531;45.502;12.238;2023-11-21T10:02:01;13.60;99.90
38784;DHT22;24531;45.502;12.238;2023-11-21T10:04:28;13.60;99.90
38784;DHT22;24531;45.502;12.238;2023-11-21T10:06:54;13.60;99.90
38784;DHT22;24531;45.502;12.238;2023-11-21T10:09:21;13.60;99.90
38784;DHT22;24531;45.502;12.238;2023-11-21T10:11:47;13.60;99.90
38784;DHT22;24531;45.502;12.238;2023-11-21T10:14:16;13.50;99.90
38784;DHT22;24531;45.502;12.238;2023-11-21T10:16:44;13.50;99.90
38784;DHT22;24531;45.502;12.238;2023-11-21T10:19:12;13.50;99.90
38784;DHT22;24531;45.502;12.238;2023-11-21T10:21:42;13.50;99.90
38784;DHT22;24531;45.502;12.238;2023-11-21T10:24:08;13.60;99.90
38784;DHT22;24531;45.502;12.238;2023-11-21T10:26:34;13.60;99.90
38784;DHT22;24531;45.502;12.238;2023-11-21T10:29:02;13.70;99.90
38784;DHT22;24531;45.502;12.238;2023-11-21T10:31:31;13.70;99.90
38784;DHT22;24531;45.502;12.238;2023-11-21T10:34:16;13.80;99.90
38784;DHT22;24531;45.502;12.238;2023-11-21T10:36:42;13.80;99.90
38784;DHT22;24531;45.502;12.238;2023-11-21T10:39:08;13.90;99.90
38784;DHT22;24531;45.502;12.238;2023-11-21T10:41:35;13.90;99.90
38784;DHT22;24531;45.502;12.238;2023-11-21T10:44:01;13.90;99.90
38784;DHT22;24531;45.502;12.238;2023-11-21T10:46:31;13.90;99.90
38784;DHT22;24531;45.502;12.238;2023-11-21T10:48:57;13.90;99.90
38784;DHT22;24531;45.502;12.238;2023-11-21T10:51:23;13.90;99.90
38784;DHT22;24531;45.502;12.238;2023-11-21T10:53:52;13.90;99.90
38784;DHT22;24531;45.502;12.238;2023-11-21T10:56:18;13.90;99.90
38784;DHT22;24531;45.502;12.238;2023-11-21T10:58:50;14.00;99.90
38784;DHT22;24531;45.502;12.238;2023-11-21T11:01:20;14.00;99.90
38784;DHT22;24531;45.502;12.238;2023-11-21T11:03:50;14.00;99.90
38784;DHT22;24531;45.502;12.238;2023-11-21T11:06:20;14.10;99.90
38784;DHT22;24531;45.502;12.238;2023-11-21T11:08:47;14.10;99.90
38784;DHT22;24531;45.502;12.238;2023-11-21T11:11:13;14.10;99.90
38784;DHT22;24531;45.502;12.238;2023-11-21T11:13:43;14.20;99.90
38784;DHT22;24531;45.502;12.238;2023-11-21T11:16:10;14.20;99.90
38784;DHT22;24531;45.502;12.238;2023-11-21T11:18:37;14.20;99.90
38784;DHT22;24531;45.502;12.238;2023-11-21T11:21:25;14.30;99.90
38784;DHT22;24531;45.502;12.238;2023-11-21T11:23:59;14.30;99.90
38784;DHT22;24531;45.502;12.238;2023-11-21T11:26:45;14.30;99.90
38784;DHT22;24531;45.502;12.238;2023-11-21T11:32:02;14.40;99.90
38784;DHT22;24531;45.502;12.238;2023-11-21T11:34:33;14.40;99.90
38784;DHT22;24531;45.502;12.238;2023-11-21T11:37:02;14.50;99.90
38784;DHT22;24531;45.502;12.238;2023-11-21T11:42:06;14.50;99.90
38784;DHT22;24531;45.502;12.238;2023-11-21T11:47:15;14.50;99.90
38784;DHT22;24531;45.502;12.238;2023-11-21T11:49:58;14.50;99.90
38784;DHT22;24531;45.502;12.238;2023-11-21T11:52:43;14.50;99.90
38784;DHT22;24531;45.502;12.238;2023-11-21T11:55:13;14.50;99.90
38784;DHT22;24531;45.502;12.238;2023-11-21T11:57:40;14.50;99.90
38784;DHT22;24531;45.502;12.238;2023-11-21T12:02:42;14.60;99.90
38784;DHT22;24531;45.502;12.238;2023-11-21T12:05:11;14.70;99.90
38784;DHT22;24531;45.502;12.238;2023-11-21T12:07:55;14.70;99.90
38784;DHT22;24531;45.502;12.238;2023-11-21T12:10:27;14.70;99.90
38784;DHT22;24531;45.502;12.238;2023-11-21T12:12:54;14.80;99.90
38784;DHT22;24531;45.502;12.238;2023-11-21T12:15:21;14.90;99.90
38784;DHT22;24531;45.502;12.238;2023-11-21T12:17:48;14.90;99.90
38784;DHT22;24531;45.502;12.238;2023-11-21T12:20:22;15.00;99.90
38784;DHT22;24531;45.502;12.238;2023-11-21T12:25:19;15.00;99.90
38784;DHT22;24531;45.502;12.238;2023-11-21T12:27:50;15.10;99.90
38784;DHT22;24531;45.502;12.238;2023-11-21T12:30:17;15.10;99.90
38784;DHT22;24531;45.502;12.238;2023-11-21T12:32:44;15.10;99.90
38784;DHT22;24531;45.502;12.238;2023-11-21T12:35:13;15.10;99.90
38784;DHT22;24531;45.502;12.238;2023-11-21T12:37:40;15.00;99.90
38784;DHT22;24531;45.502;12.238;2023-11-21T12:40:06;15.00;99.90
38784;DHT22;24531;45.502;12.238;2023-11-21T12:42:33;15.00;99.90
38784;DHT22;24531;45.502;12.238;2023-11-21T12:47:42;14.90;99.90
38784;DHT22;24531;45.502;12.238;2023-11-21T12:50:09;15.00;99.90
38784;DHT22;24531;45.502;12.238;2023-11-21T12:52:45;14.90;99.90
38784;DHT22;24531;45.502;12.238;2023-11-21T12:55:20;14.90;99.90
38784;DHT22;24531;45.502;12.238;2023-11-21T12:57:54;15.00;99.90
38784;DHT22;24531;45.502;12.238;2023-11-21T13:00:20;15.00;99.90
38784;DHT22;24531;45.502;12.238;2023-11-21T13:02:56;15.00;99.90
38784;DHT22;24531;45.502;12.238;2023-11-21T13:05:30;15.00;99.90
38784;DHT22;24531;45.502;12.238;2023-11-21T13:07:58;15.00;99.90
38784;DHT22;24531;45.502;12.238;2023-11-21T13:10:27;14.90;99.90
38784;DHT22;24531;45.502;12.238;2023-11-21T13:13:00;14.90;99.90
38784;DHT22;24531;45.502;12.238;2023-11-21T13:15:27;14.90;99.90
38784;DHT22;24531;45.502;12.238;2023-11-21T13:17:53;14.90;99.90
38784;DHT22;24531;45.502;12.238;2023-11-21T13:20:19;14.90;99.90
38784;DHT22;24531;45.502;12.238;2023-11-21T13:25:16;14.90;99.90
38784;DHT22;24531;45.502;12.238;2023-11-21T13:27:45;14.90;99.90
38784;DHT22;24531;45.502;12.238;2023-11-21T13:30:15;14.90;99.90
38784;DHT22;24531;45.502;12.238;2023-11-21T13:32:45;14.90;99.90
38784;DHT22;24531;45.502;12.238;2023-11-21T13:35:20;14.90;99.90
38784;DHT22;24531;45.502;12.238;2023-11-21T13:37:53;15.00;99.90
38784;DHT22;24531;45.502;12.238;2023-11-21T13:40:22;14.90;99.90
38784;DHT22;24531;45.502;12.238;2023-11-21T13:42:51;15.00;99.90
38784;DHT22;24531;45.502;12.238;2023-11-21T13:45:21;15.00;99.90
38784;DHT22;24531;45.502;12.238;2023-11-21T13:47:49;14.90;99.90
38784;DHT22;24531;45.502;12.238;2023-11-21T13:50:17;14.90;99.90
38784;DHT22;24531;45.502;12.238;2023-11-21T13:52:48;14.90;99.90
38784;DHT22;24531;45.502;12.238;2023-11-21T13:55:14;14.80;99.90
38784;DHT22;24531;45.502;12.238;2023-11-21T13:57:44;14.80;99.90
38784;DHT22;24531;45.502;12.238;2023-11-21T14:00:12;14.80;99.90
38784;DHT22;24531;45.502;12.238;2023-11-21T14:02:58;14.80;99.90
38784;DHT22;24531;45.502;12.238;2023-11-21T14:05:27;14.70;99.90
38784;DHT22;24531;45.502;12.238;2023-11-21T14:07:57;14.70;99.90
38784;DHT22;24531;45.502;12.238;2023-11-21T14:10:29;14.70;99.90
38784;DHT22;24531;45.502;12.238;2023-11-21T14:13:03;14.70;99.90
38784;DHT22;24531;45.502;12.238;2023-11-21T14:15:30;14.60;99.90
38784;DHT22;24531;45.502;12.238;2023-11-21T14:17:56;14.60;99.90
38784;DHT22;24531;45.502;12.238;2023-11-21T14:20:22;14.60;99.90
38784;DHT22;24531;45.502;12.238;2023-11-21T14:22:48;14.60;99.90
38784;DHT22;24531;45.502;12.238;2023-11-21T14:25:13;14.60;99.90
38784;DHT22;24531;45.502;12.238;2023-11-21T14:27:39;14.60;99.90
38784;DHT22;24531;45.502;12.238;2023-11-21T14:30:06;14.60;99.90
38784;DHT22;24531;45.502;12.238;2023-11-21T14:32:32;14.60;99.90
38784;DHT22;24531;45.502;12.238;2023-11-21T14:34:57;14.60;99.90
38784;DHT22;24531;45.502;12.238;2023-11-21T14:37:23;14.50;99.90
38784;DHT22;24531;45.502;12.238;2023-11-21T14:39:49;14.60;99.90
38784;DHT22;24531;45.502;12.238;2023-11-21T14:42:15;14.50;99.90
38784;DHT22;24531;45.502;12.238;2023-11-21T14:44:43;14.50;99.90
38784;DHT22;24531;45.502;12.238;2023-11-21T14:47:09;14.50;99.90
38784;DHT22;24531;45.502;12.238;2023-11-21T14:49:44;14.50;99.90
38784;DHT22;24531;45.502;12.238;2023-11-21T14:52:22;14.60;99.90
38784;DHT22;24531;45.502;12.238;2023-11-21T14:55:00;14.60;99.90
38784;DHT22;24531;45.502;12.238;2023-11-21T14:57:46;14.60;99.90
38784;DHT22;24531;45.502;12.238;2023-11-21T15:00:19;14.60;99.90
38784;DHT22;24531;45.502;12.238;2023-11-21T15:03:01;14.60;99.90
38784;DHT22;24531;45.502;12.238;2023-11-21T15:05:27;14.60;99.90
38784;DHT22;24531;45.502;12.238;2023-11-21T15:07:56;14.60;99.90
38784;DHT22;24531;45.502;12.238;2023-11-21T15:10:24;14.60;99.90
38784;DHT22;24531;45.502;12.238;2023-11-21T15:13:09;14.50;99.90
38784;DHT22;24531;45.502;12.238;2023-11-21T15:15:36;14.60;99.90
38784;DHT22;24531;45.502;12.238;2023-11-21T15:18:03;14.60;99.90
38784;DHT22;24531;45.502;12.238;2023-11-21T15:20:29;14.60;99.90
38784;DHT22;24531;45.502;12.238;2023-11-21T15:22:55;14.60;99.90
38784;DHT22;24531;45.502;12.238;2023-11-21T15:25:21;14.50;99.90
38784;DHT22;24531;45.502;12.238;2023-11-21T15:27:47;14.50;99.90
38784;DHT22;24531;45.502;12.238;2023-11-21T15:30:15;14.50;99.90
38784;DHT22;24531;45.502;12.238;2023-11-21T15:32:44;14.50;99.90
38784;DHT22;24531;45.502;12.238;2023-11-21T15:35:10;14.50;99.90